Portada
METAR-TAF:

METAR-TAF

Aeropuertos :

Vientián, Laos

Aeropuerto Internacional Wattay

latitud: 17-57N, longitud: 102-34E, altitud: 171 m

Observación

El informe se hizo hace 32 minutos, a las 15:00 UTC
Viento 4 kt del norte-noroeste
Temperatura 22°C
Humedad 78%
Presión 1009 hPa
Visibilidad: 4000 m
neblina

METAR: VLVT 231500Z 34004KT 4000 BR NSC 22/18 Q1009 NOSIG

Hora: 22:32 (15:32 UTC)

Pronóstico

El informe se hizo hace 4 horas y 32 minutos, a las 11:00 UTC
Pronóstico válido del 23 a las 12 UTC al 24 a las 12 UTC
Viento 4 kt del noroeste
Visibilidad: 7000 m
Escasas nubes a una altura de 2000 ft
Escasas nubes a una altura de 5000 ft
Temporalmente
del 23 a las 14 UTC al 23 a las 20 UTC
Visibilidad: 4000 m
Escasas nubes a una altura de 5000 ft
neblina

TAF: VLVT 231100Z 2312/2412 32004KT 7000 FEW020 FEW050 TEMPO 2314/2320 4000 BR FEW050

Observaciones y pronósticos meteorológicos de más de 4000 aeropuertos (mensajes METAR y TAF).

Los puntos amarillos y rojos representan las estaciones disponibles.

Ponga el ratón en el punto deseado para ver el nombre de la estación.

Haga clic para ver las observaciones y los pronósticos meteorológicos.

Para cambiar el mapa : haga clic en los botones verdes con una cruz de color negro para hacer un zoom, en el botón verde con un guión para alejar o en las flechas verdes para mapas adyacentes.


METAR-TAF: